METAR Data

Data at: 2101 UTC 01 Dec 2021

METAR for:KORH (Worcester Muni, MA, US)
Text:KORH 012054Z 28005KT 10SM CLR 04/M04 A3008 RMK AO2 SLP198 T00391039 51010
Temperature: 3.9°C ( 39°F)
Dewpoint: -3.9°C ( 25°F) [RH = 57%]
Pressure (altimeter):30.08 inches Hg (1018.7 mb) [Sea level pressure: 1019.8 mb]
Winds:from the W (280 degrees) at 6 MPH (5 knots; 2.6 m/s)
Visibility:10 or more sm (16+ km)
Ceiling:at least 12,000 feet AGL
Clouds:sky clear below 12,000 feet AGL